createdAt,value
2018-03-27T00:02:02.171Z,92.60
2018-03-27T00:04:30.458Z,92.50
2018-03-27T00:06:58.050Z,92.50
2018-03-27T00:09:25.600Z,92.60
2018-03-27T00:11:53.093Z,92.80
2018-03-27T00:14:20.669Z,92.90
2018-03-27T00:16:48.186Z,92.80
2018-03-27T00:19:15.719Z,92.80
2018-03-27T00:21:43.990Z,92.90
2018-03-27T00:24:12.336Z,93.00
2018-03-27T00:26:51.775Z,93.00
2018-03-27T00:29:31.124Z,93.10
2018-03-27T00:32:10.437Z,93.10
2018-03-27T00:34:49.751Z,93.10
2018-03-27T00:37:29.228Z,93.20
2018-03-27T00:40:08.462Z,93.00
2018-03-27T00:45:33.939Z,92.70
2018-03-27T00:48:01.471Z,92.80
2018-03-27T00:50:29.034Z,93.00
2018-03-27T00:52:57.343Z,93.00
2018-03-27T00:55:24.878Z,92.90
2018-03-27T00:57:53.155Z,92.70
2018-03-27T01:00:21.474Z,92.70
2018-03-27T01:02:49.011Z,92.60
2018-03-27T01:05:17.314Z,92.80
2018-03-27T01:07:44.842Z,92.70
2018-03-27T01:10:13.166Z,92.80
2018-03-27T01:12:40.718Z,92.80
2018-03-27T01:15:08.247Z,92.80
2018-03-27T01:17:35.761Z,92.70
2018-03-27T01:20:03.291Z,92.70
2018-03-27T01:22:30.835Z,92.70
2018-03-27T01:24:58.366Z,92.70
2018-03-27T01:27:26.650Z,92.70
2018-03-27T01:29:54.922Z,92.60
2018-03-27T01:32:23.210Z,92.70
2018-03-27T01:34:51.495Z,92.70
2018-03-27T01:37:19.782Z,92.70
2018-03-27T01:39:47.302Z,92.70
2018-03-27T01:42:14.831Z,92.70
2018-03-27T01:44:42.338Z,92.70
2018-03-27T01:47:10.627Z,92.70
2018-03-27T01:49:38.901Z,92.60
2018-03-27T01:52:07.199Z,92.60
2018-03-27T01:54:34.710Z,92.50
2018-03-27T01:57:02.232Z,92.50
2018-03-27T01:59:29.742Z,92.50
2018-03-27T02:01:57.282Z,92.40
2018-03-27T02:04:24.797Z,92.40
2018-03-27T02:06:52.336Z,92.40
2018-03-27T02:09:20.617Z,92.40
2018-03-27T02:11:53.717Z,92.40
2018-03-27T02:14:26.890Z,92.40
2018-03-27T02:17:00.887Z,92.50
2018-03-27T02:19:33.959Z,92.50
2018-03-27T02:22:00.997Z,92.50
2018-03-27T02:24:31.902Z,92.80
2018-03-27T02:26:59.432Z,92.60
2018-03-27T02:29:26.950Z,92.60
2018-03-27T02:31:54.462Z,92.50
2018-03-27T02:34:22.749Z,92.60
2018-03-27T02:36:51.015Z,92.60
2018-03-27T02:39:19.308Z,92.50
2018-03-27T02:41:46.810Z,92.40
2018-03-27T02:44:14.329Z,92.50
2018-03-27T02:46:41.863Z,92.50
2018-03-27T02:49:09.388Z,92.60
2018-03-27T02:51:36.933Z,92.60
2018-03-27T02:54:04.467Z,92.60
2018-03-27T02:56:32.027Z,92.70
2018-03-27T02:59:00.351Z,92.80
2018-03-27T03:01:27.855Z,92.70
2018-03-27T03:03:56.153Z,92.70
2018-03-27T03:06:23.662Z,92.70
2018-03-27T03:08:51.210Z,92.80
2018-03-27T03:11:18.713Z,92.80
2018-03-27T03:13:47.011Z,92.90
2018-03-27T03:16:14.530Z,92.80
2018-03-27T03:18:42.063Z,92.80
2018-03-27T03:21:09.567Z,92.60
2018-03-27T03:23:37.860Z,92.50
2018-03-27T03:26:06.135Z,92.30
2018-03-27T03:28:34.406Z,92.30
2018-03-27T03:31:02.698Z,92.20
2018-03-27T03:33:30.204Z,92.10
2018-03-27T03:35:57.771Z,92.00
2018-03-27T03:38:25.274Z,92.00
2018-03-27T03:40:53.554Z,92.10
2018-03-27T03:43:21.073Z,92.10
2018-03-27T03:45:48.606Z,92.10
2018-03-27T03:48:16.109Z,92.10
2018-03-27T03:50:44.411Z,92.10
2018-03-27T03:53:12.703Z,92.10
2018-03-27T03:55:40.245Z,92.10
2018-03-27T03:58:08.507Z,92.20
2018-03-27T04:00:36.793Z,92.30
2018-03-27T04:03:05.058Z,92.40
2018-03-27T04:05:32.591Z,92.30
2018-03-27T04:08:00.107Z,92.40
2018-03-27T04:10:27.635Z,92.40
2018-03-27T04:12:55.907Z,92.50
2018-03-27T04:15:23.435Z,92.50
2018-03-27T04:17:50.946Z,92.50
2018-03-27T04:20:19.224Z,92.30
2018-03-27T04:22:47.495Z,92.40
2018-03-27T04:25:15.797Z,92.40
2018-03-27T04:27:43.304Z,92.30
2018-03-27T04:30:10.839Z,92.40
2018-03-27T04:32:38.354Z,92.80
2018-03-27T04:35:06.638Z,93.60
2018-03-27T04:37:34.921Z,93.70
2018-03-27T04:40:02.460Z,93.60
2018-03-27T04:42:29.958Z,94.00
2018-03-27T04:44:57.492Z,94.00
2018-03-27T04:47:25.770Z,93.90
2018-03-27T04:49:54.058Z,93.70
2018-03-27T04:52:21.566Z,93.70
2018-03-27T04:54:49.074Z,93.80
2018-03-27T04:57:17.363Z,93.70
2018-03-27T04:59:44.888Z,93.60
2018-03-27T05:02:12.405Z,93.70
2018-03-27T05:04:39.921Z,93.80
2018-03-27T05:07:08.206Z,93.70
2018-03-27T05:09:36.481Z,93.70
2018-03-27T05:12:04.838Z,93.70
2018-03-27T05:14:32.345Z,93.70
2018-03-27T05:16:59.886Z,94.10
2018-03-27T05:19:28.158Z,93.90
2018-03-27T05:21:56.446Z,94.10
2018-03-27T05:24:23.985Z,94.10
2018-03-27T05:26:52.283Z,94.20
2018-03-27T05:29:19.792Z,94.10
2018-03-27T05:31:47.320Z,94.10
2018-03-27T05:34:14.842Z,94.20
2018-03-27T05:36:43.164Z,94.80
2018-03-27T05:39:10.750Z,94.80
2018-03-27T05:41:38.359Z,94.70
2018-03-27T05:44:06.630Z,95.10
2018-03-27T05:46:34.925Z,96.20
2018-03-27T05:49:03.201Z,95.50
2018-03-27T05:51:30.738Z,95.50
2018-03-27T05:53:59.012Z,94.70
2018-03-27T05:56:27.306Z,95.10
2018-03-27T05:58:55.586Z,95.30
2018-03-27T06:01:23.885Z,94.70
2018-03-27T06:03:51.412Z,94.70
2018-03-27T06:06:18.954Z,94.50
2018-03-27T06:08:46.458Z,94.50
2018-03-27T06:11:14.040Z,94.60
2018-03-27T06:13:41.527Z,94.60
2018-03-27T06:16:09.038Z,94.70
2018-03-27T06:18:36.565Z,94.70
2018-03-27T06:21:04.857Z,94.80
2018-03-27T06:23:33.142Z,94.80
2018-03-27T06:26:00.658Z,94.80
2018-03-27T06:28:28.174Z,94.80
2018-03-27T06:30:55.687Z,94.80
2018-03-27T06:33:23.225Z,94.80
2018-03-27T06:35:50.765Z,95.20
2018-03-27T06:38:18.302Z,94.90
2018-03-27T06:40:46.575Z,94.40
2018-03-27T06:43:14.869Z,94.40
2018-03-27T06:45:42.382Z,94.40
2018-03-27T06:48:09.909Z,94.30
2018-03-27T06:50:37.419Z,94.30
2018-03-27T06:53:05.718Z,94.20
2018-03-27T06:55:33.267Z,94.20
2018-03-27T06:58:01.546Z,94.10
2018-03-27T07:00:29.826Z,93.80
2018-03-27T07:02:58.119Z,93.80
2018-03-27T07:05:25.716Z,93.80
2018-03-27T07:07:53.235Z,93.80
2018-03-27T07:10:20.800Z,93.60
2018-03-27T07:12:48.414Z,93.40
2018-03-27T07:15:16.029Z,93.60
2018-03-27T07:17:44.349Z,92.80
2018-03-27T07:20:11.891Z,92.80
2018-03-27T07:22:39.406Z,92.40
2018-03-27T07:25:07.679Z,92.30
2018-03-27T07:27:35.949Z,92.40
2018-03-27T07:30:04.250Z,91.60
2018-03-27T07:32:32.665Z,91.90
2018-03-27T07:35:00.186Z,91.90
2018-03-27T07:37:27.714Z,91.70
2018-03-27T07:40:02.139Z,90.80
2018-03-27T07:42:29.656Z,90.90
2018-03-27T07:44:57.182Z,90.50
2018-03-27T07:47:25.458Z,86.00
2018-03-27T07:49:53.750Z,85.10
2018-03-27T07:52:21.266Z,85.00
2018-03-27T07:54:48.782Z,84.80
2018-03-27T07:57:16.286Z,84.90
2018-03-27T07:59:43.815Z,83.80
2018-03-27T08:02:11.333Z,84.20
2018-03-27T08:04:39.614Z,84.10
2018-03-27T08:07:07.880Z,83.10
2018-03-27T08:09:36.167Z,83.40
2018-03-27T08:12:04.438Z,80.30
2018-03-27T08:14:32.730Z,81.10
2018-03-27T08:17:00.234Z,81.10
2018-03-27T08:19:27.771Z,79.00
2018-03-27T08:21:55.274Z,78.90
2018-03-27T08:24:22.839Z,77.80
2018-03-27T08:26:50.324Z,77.00
2018-03-27T08:29:18.688Z,73.90
2018-03-27T08:31:46.157Z,73.80
2018-03-27T08:34:14.438Z,73.40
2018-03-27T08:36:42.714Z,72.00
2018-03-27T08:39:11.046Z,72.10
2018-03-27T08:41:38.575Z,72.00
2018-03-27T08:44:06.094Z,70.20
2018-03-27T08:46:33.607Z,65.80
2018-03-27T08:49:01.142Z,66.30
2018-03-27T08:51:28.644Z,66.70
2018-03-27T08:53:56.167Z,66.90
2018-03-27T08:56:23.741Z,67.70
2018-03-27T08:58:52.032Z,70.50
2018-03-27T09:01:19.534Z,70.40
2018-03-27T09:03:47.039Z,70.30
2018-03-27T09:06:14.559Z,70.80
2018-03-27T09:08:42.830Z,70.50
2018-03-27T09:11:10.361Z,70.50
2018-03-27T09:13:37.885Z,70.30
2018-03-27T09:16:05.414Z,68.50
2018-03-27T09:18:32.915Z,68.70
2018-03-27T09:21:00.444Z,67.80
2018-03-27T09:23:29.497Z,69.00
2018-03-27T09:25:57.187Z,69.60
2018-03-27T09:28:24.694Z,64.20
2018-03-27T09:30:54.372Z,64.00
2018-03-27T09:33:22.652Z,59.90
2018-03-27T09:35:51.252Z,60.30
2018-03-27T09:38:19.522Z,59.80
2018-03-27T09:40:47.051Z,59.70
2018-03-27T09:43:14.558Z,58.90
2018-03-27T09:45:42.533Z,57.50
2018-03-27T09:48:10.474Z,55.90
2018-03-27T09:50:40.206Z,57.40
2018-03-27T09:53:07.723Z,57.30
2018-03-27T09:55:36.210Z,57.30
2018-03-27T09:58:03.821Z,56.80
2018-03-27T10:00:36.954Z,55.70
2018-03-27T10:03:04.479Z,56.50
2018-03-27T10:05:32.003Z,53.20
2018-03-27T10:08:00.277Z,48.30
2018-03-27T10:10:29.966Z,48.90
2018-03-27T10:12:58.254Z,49.40
2018-03-27T10:15:25.814Z,49.50
2018-03-27T10:17:54.103Z,44.70
2018-03-27T10:20:22.439Z,45.60
2018-03-27T10:22:50.008Z,46.40
2018-03-27T10:25:17.519Z,47.20
2018-03-27T10:27:45.153Z,49.00
2018-03-27T10:30:12.662Z,48.20
2018-03-27T10:32:40.189Z,48.90
2018-03-27T10:35:08.465Z,51.80
2018-03-27T10:37:36.762Z,52.40
2018-03-27T10:40:04.275Z,52.30
2018-03-27T10:42:31.818Z,52.00
2018-03-27T10:44:59.326Z,49.80
2018-03-27T10:47:27.634Z,50.50
2018-03-27T10:49:55.162Z,50.40
2018-03-27T10:52:23.456Z,51.70
2018-03-27T10:54:50.964Z,51.70
2018-03-27T10:57:18.814Z,52.50
2018-03-27T10:59:48.374Z,52.90
2018-03-27T11:02:16.670Z,53.20
2018-03-27T11:04:44.175Z,53.10
2018-03-27T11:07:11.715Z,56.80
2018-03-27T11:09:39.230Z,55.50
2018-03-27T11:12:07.533Z,51.80
2018-03-27T11:14:35.046Z,51.80
2018-03-27T11:17:02.575Z,50.30
2018-03-27T11:19:30.090Z,48.30
2018-03-27T11:21:58.402Z,50.20
2018-03-27T11:24:25.908Z,50.20
2018-03-27T11:26:54.219Z,52.40
2018-03-27T11:29:21.805Z,52.30
2018-03-27T11:31:50.059Z,52.30
2018-03-27T11:34:17.571Z,52.20
2018-03-27T11:36:45.129Z,51.70
2018-03-27T11:39:32.339Z,50.20
2018-03-27T11:41:59.968Z,49.30
2018-03-27T11:44:27.478Z,47.40
2018-03-27T11:46:55.045Z,45.90
2018-03-27T11:49:22.570Z,45.50
2018-03-27T11:51:50.083Z,43.70
2018-03-27T11:54:18.375Z,46.00
2018-03-27T11:56:45.893Z,46.00
2018-03-27T11:59:13.434Z,46.50
2018-03-27T12:01:40.949Z,47.20
2018-03-27T12:04:09.244Z,46.20
2018-03-27T12:06:37.373Z,46.20
2018-03-27T12:09:04.914Z,46.80
2018-03-27T12:11:32.421Z,46.30
2018-03-27T12:14:00.771Z,45.90
2018-03-27T12:16:28.298Z,45.90
2018-03-27T12:18:55.840Z,44.60
2018-03-27T12:21:23.371Z,43.70
2018-03-27T12:23:51.806Z,47.30
2018-03-27T12:26:19.358Z,47.20
2018-03-27T12:28:46.896Z,45.60
2018-03-27T12:31:14.442Z,44.70
2018-03-27T12:33:41.984Z,38.80
2018-03-27T12:36:09.495Z,40.70
2018-03-27T12:38:37.020Z,41.90
2018-03-27T12:41:05.303Z,38.30
2018-03-27T12:43:33.023Z,38.20
2018-03-27T12:46:01.336Z,36.90
2018-03-27T12:48:29.846Z,38.30
2018-03-27T12:50:57.357Z,38.20
2018-03-27T12:53:24.888Z,38.20
2018-03-27T12:55:52.406Z,38.10
2018-03-27T12:58:20.698Z,38.00
2018-03-27T13:00:48.223Z,37.90
2018-03-27T13:03:16.526Z,36.20
2018-03-27T13:05:44.043Z,36.20
2018-03-27T13:08:11.591Z,36.30
2018-03-27T13:10:39.116Z,39.30
2018-03-27T13:13:06.678Z,39.20
2018-03-27T13:15:34.222Z,38.80
2018-03-27T13:18:02.523Z,37.00
2018-03-27T13:20:30.063Z,36.90
2018-03-27T13:22:58.336Z,35.30
2018-03-27T13:25:26.638Z,34.30
2018-03-27T13:27:54.155Z,34.30
2018-03-27T13:30:21.688Z,35.90
2018-03-27T13:32:49.219Z,35.00
2018-03-27T13:35:16.754Z,34.90
2018-03-27T13:37:45.187Z,37.30
2018-03-27T13:40:12.760Z,37.30
2018-03-27T13:42:40.289Z,37.00
2018-03-27T13:45:07.829Z,36.90
2018-03-27T13:47:36.124Z,38.20
2018-03-27T13:50:03.672Z,38.10
2018-03-27T13:52:31.185Z,36.60
2018-03-27T13:54:58.730Z,36.90
2018-03-27T13:57:26.245Z,37.50
2018-03-27T13:59:53.786Z,37.80
2018-03-27T14:02:22.084Z,38.10
2018-03-27T14:04:49.614Z,38.00
2018-03-27T14:07:17.137Z,38.30
2018-03-27T14:09:44.706Z,38.30
2018-03-27T14:12:12.227Z,38.90
2018-03-27T14:14:39.760Z,38.40
2018-03-27T14:17:08.055Z,38.10
2018-03-27T14:19:36.346Z,38.50
2018-03-27T14:22:03.890Z,38.50
2018-03-27T14:24:32.182Z,37.10
2018-03-27T14:26:59.690Z,37.60
2018-03-27T14:29:27.215Z,37.30
2018-03-27T14:31:54.747Z,38.10
2018-03-27T14:34:23.116Z,37.50
2018-03-27T14:36:50.719Z,37.40
2018-03-27T14:39:18.230Z,37.50
2018-03-27T14:41:46.534Z,38.40
2018-03-27T14:44:14.073Z,38.40
2018-03-27T14:46:41.630Z,38.40
2018-03-27T14:49:09.372Z,38.30
2018-03-27T14:51:36.913Z,38.80
2018-03-27T14:54:04.426Z,38.90
2018-03-27T14:56:32.730Z,38.60
2018-03-27T14:59:00.295Z,38.60
2018-03-27T15:01:27.835Z,39.20
2018-03-27T15:03:56.115Z,38.30
2018-03-27T15:06:24.416Z,38.50
2018-03-27T15:08:51.935Z,38.50
2018-03-27T15:11:20.236Z,39.20
2018-03-27T15:13:48.513Z,39.40
2018-03-27T15:16:16.042Z,39.30
2018-03-27T15:18:43.558Z,42.00
2018-03-27T15:21:11.095Z,47.30
2018-03-27T15:23:38.626Z,44.00
2018-03-27T15:26:06.930Z,40.00
2018-03-27T15:28:35.201Z,39.60
2018-03-27T15:31:03.489Z,39.40
2018-03-27T15:33:31.029Z,39.40
2018-03-27T15:35:58.566Z,39.50
2018-03-27T15:38:26.096Z,39.60
2018-03-27T15:40:53.617Z,39.50
2018-03-27T15:43:21.154Z,40.20
2018-03-27T15:45:48.674Z,40.70
2018-03-27T15:48:16.208Z,40.40
2018-03-27T15:50:43.715Z,40.60
2018-03-27T15:53:11.251Z,44.80
2018-03-27T15:55:38.784Z,41.30
2018-03-27T15:58:07.082Z,40.40
2018-03-27T16:00:34.599Z,40.30
2018-03-27T16:03:02.145Z,40.50
2018-03-27T16:05:29.664Z,41.50
2018-03-27T16:07:57.969Z,42.30
2018-03-27T16:10:25.473Z,42.20
2018-03-27T16:12:53.785Z,41.10
2018-03-27T16:15:21.306Z,41.10
2018-03-27T16:17:49.597Z,41.60
2018-03-27T16:20:17.870Z,42.10
2018-03-27T16:22:46.175Z,42.50
2018-03-27T16:25:13.687Z,42.40
2018-03-27T16:27:41.994Z,43.80
2018-03-27T16:30:09.514Z,43.20
2018-03-27T16:32:37.038Z,42.70
2018-03-27T16:35:04.550Z,42.90
2018-03-27T16:37:32.850Z,42.70
2018-03-27T16:40:00.372Z,43.10
2018-03-27T16:42:27.897Z,43.30
2018-03-27T16:44:55.412Z,43.50
2018-03-27T16:47:23.714Z,43.30
2018-03-27T16:49:51.226Z,43.20
2018-03-27T16:52:18.746Z,43.30
2018-03-27T16:54:46.278Z,43.00
2018-03-27T16:57:14.560Z,44.00
2018-03-27T16:59:42.850Z,44.30
2018-03-27T17:02:10.364Z,44.20
2018-03-27T17:04:37.908Z,45.10
2018-03-27T17:07:05.419Z,45.20
2018-03-27T17:09:50.641Z,45.60
2018-03-27T17:12:18.159Z,45.60
2018-03-27T17:14:45.698Z,45.90
2018-03-27T17:17:13.218Z,46.20
2018-03-27T17:19:40.752Z,46.40
2018-03-27T17:22:08.279Z,47.00
2018-03-27T17:24:36.765Z,47.30
2018-03-27T17:27:05.083Z,47.50
2018-03-27T17:29:32.603Z,47.40
2018-03-27T17:32:00.934Z,48.10
2018-03-27T17:34:28.682Z,48.00
2018-03-27T17:36:56.190Z,48.20
2018-03-27T17:39:23.716Z,48.50
2018-03-27T17:41:51.254Z,48.90
2018-03-27T17:44:20.274Z,49.40
2018-03-27T17:46:47.795Z,49.70
2018-03-27T17:49:15.329Z,50.10
2018-03-27T17:51:42.842Z,51.70
2018-03-27T17:54:10.380Z,50.40
2018-03-27T17:56:37.917Z,50.20
2018-03-27T17:59:06.226Z,52.80
2018-03-27T18:01:33.849Z,52.80
2018-03-27T18:04:01.399Z,51.90
2018-03-27T18:06:28.901Z,52.10
2018-03-27T18:08:56.415Z,55.10
2018-03-27T18:11:23.946Z,57.00
2018-03-27T18:13:51.463Z,58.80
2018-03-27T18:16:19.759Z,61.40
2018-03-27T18:18:47.271Z,61.30
2018-03-27T18:21:14.803Z,63.70
2018-03-27T18:23:42.433Z,64.70
2018-03-27T18:26:09.978Z,67.20
2018-03-27T18:28:38.274Z,68.20
2018-03-27T18:31:05.837Z,68.10
2018-03-27T18:33:33.362Z,69.80
2018-03-27T18:36:00.938Z,70.40
2018-03-27T18:38:29.630Z,72.80
2018-03-27T18:40:57.167Z,72.70
2018-03-27T18:43:24.687Z,72.40
2018-03-27T18:45:52.326Z,72.40
2018-03-27T18:48:19.846Z,72.90
2018-03-27T18:50:47.414Z,72.90
2018-03-27T18:53:14.991Z,72.80
2018-03-27T18:55:43.768Z,73.50
2018-03-27T18:58:11.283Z,73.50
2018-03-27T19:00:38.814Z,73.50
2018-03-27T19:03:06.722Z,73.80
2018-03-27T19:05:34.363Z,74.10
2018-03-27T19:08:01.948Z,74.10
2018-03-27T19:10:29.732Z,74.90
2018-03-27T19:12:57.235Z,74.80
2018-03-27T19:15:25.518Z,74.30
2018-03-27T19:17:53.050Z,74.20
2018-03-27T19:20:20.571Z,74.50
2018-03-27T19:22:48.101Z,73.50
2018-03-27T19:25:15.611Z,73.90
2018-03-27T19:27:43.144Z,73.80
2018-03-27T19:30:10.691Z,74.50
2018-03-27T19:32:38.214Z,74.40
2018-03-27T19:35:06.508Z,74.90
2018-03-27T19:37:34.811Z,75.00
2018-03-27T19:40:02.341Z,74.90
2018-03-27T19:42:30.641Z,74.60
2018-03-27T19:44:58.150Z,74.50
2018-03-27T19:47:25.680Z,75.00
2018-03-27T19:49:53.199Z,75.20
2018-03-27T19:52:21.648Z,75.80
2018-03-27T19:54:49.162Z,75.70
2018-03-27T19:57:16.684Z,76.60
2018-03-27T19:59:44.966Z,78.40
2018-03-27T20:02:13.256Z,78.50
2018-03-27T20:04:41.533Z,79.10
2018-03-27T20:07:09.834Z,79.40
2018-03-27T20:09:37.347Z,79.30
2018-03-27T20:12:04.871Z,79.80
2018-03-27T20:14:32.383Z,79.10
2018-03-27T20:17:00.682Z,79.10
2018-03-27T20:19:28.194Z,79.10
2018-03-27T20:21:55.745Z,79.00
2018-03-27T20:24:23.436Z,79.20
2018-03-27T20:26:51.714Z,79.40
2018-03-27T20:29:20.023Z,79.70
2018-03-27T20:31:47.559Z,80.50
2018-03-27T20:34:15.870Z,79.50
2018-03-27T20:36:43.403Z,79.50
2018-03-27T20:39:11.703Z,80.20
2018-03-27T20:41:39.215Z,79.40
2018-03-27T20:44:06.786Z,79.30
2018-03-27T20:46:34.298Z,79.20
2018-03-27T20:49:01.852Z,79.80
2018-03-27T20:51:29.384Z,79.80
2018-03-27T20:53:57.673Z,79.30
2018-03-27T20:56:25.182Z,79.30
2018-03-27T20:58:52.718Z,79.30
2018-03-27T21:01:20.234Z,79.70
2018-03-27T21:03:48.531Z,79.60
2018-03-27T21:06:16.066Z,79.60
2018-03-27T21:08:44.357Z,79.90
2018-03-27T21:11:12.640Z,79.60
2018-03-27T21:13:40.938Z,80.00
2018-03-27T21:16:08.445Z,79.90
2018-03-27T21:18:35.979Z,79.70
2018-03-27T21:21:03.489Z,80.10
2018-03-27T21:23:31.046Z,80.10
2018-03-27T21:25:59.327Z,82.80
2018-03-27T21:28:27.633Z,84.10
2018-03-27T21:30:55.158Z,84.10
2018-03-27T21:33:22.778Z,84.30
2018-03-27T21:35:50.287Z,85.20
2018-03-27T21:38:18.571Z,86.70
2018-03-27T21:40:46.870Z,87.50
2018-03-27T21:43:14.375Z,87.50
2018-03-27T21:45:41.901Z,88.00
2018-03-27T21:48:09.413Z,88.30
2018-03-27T21:50:37.707Z,88.60
2018-03-27T21:53:05.981Z,88.60
2018-03-27T21:55:34.279Z,88.60
2018-03-27T21:58:01.828Z,88.50
2018-03-27T22:00:30.123Z,88.80
2018-03-27T22:02:57.642Z,88.70
2018-03-27T22:05:25.170Z,89.00
2018-03-27T22:07:52.681Z,89.20
2018-03-27T22:10:20.220Z,89.40
2018-03-27T22:12:48.522Z,89.40
2018-03-27T22:15:16.954Z,89.50
2018-03-27T22:17:44.456Z,89.40
2018-03-27T22:20:12.741Z,90.00
2018-03-27T22:22:40.266Z,90.00
2018-03-27T22:25:07.801Z,90.10
2018-03-27T22:27:35.315Z,90.20
2018-03-27T22:30:03.611Z,90.70
2018-03-27T22:32:31.890Z,90.70
2018-03-27T22:34:59.411Z,90.90
2018-03-27T22:37:27.689Z,91.10
2018-03-27T22:39:55.212Z,91.00
2018-03-27T22:42:22.733Z,91.00
2018-03-27T22:44:50.259Z,91.00
2018-03-27T22:47:17.796Z,91.10
2018-03-27T22:49:45.317Z,91.10
2018-03-27T22:52:12.867Z,91.00
2018-03-27T22:54:41.232Z,90.90
2018-03-27T22:57:08.738Z,90.90
2018-03-27T22:59:36.253Z,91.00
2018-03-27T23:02:04.567Z,91.10
2018-03-27T23:04:32.084Z,91.10
2018-03-27T23:06:59.620Z,91.20
2018-03-27T23:09:27.146Z,91.50
2018-03-27T23:11:54.688Z,91.30
2018-03-27T23:14:22.246Z,91.60
2018-03-27T23:16:50.627Z,91.70
2018-03-27T23:19:18.218Z,91.60
2018-03-27T23:21:45.763Z,91.60
2018-03-27T23:24:13.281Z,91.60
2018-03-27T23:26:40.901Z,91.70
2018-03-27T23:29:08.527Z,91.70
2018-03-27T23:31:36.824Z,91.80
2018-03-27T23:34:04.360Z,91.80
2018-03-27T23:36:32.654Z,91.90
2018-03-27T23:39:00.211Z,91.90
2018-03-27T23:41:28.546Z,92.00
2018-03-27T23:43:56.075Z,92.00
2018-03-27T23:46:23.606Z,92.00
2018-03-27T23:48:51.891Z,92.40
2018-03-27T23:51:20.227Z,92.40
2018-03-27T23:53:47.770Z,92.30
2018-03-27T23:56:15.337Z,92.60
2018-03-27T23:58:42.906Z,92.60
